METAR Data
IDs: Format: Raw Decoded Include TAF

Data at: 2144 UTC 02 Aug 2021

ESSP 022120Z AUTO 30006KT 9999 BKN013/// BKN017/// OVC029/// 13/11 Q1006